sensor_id;sensor_type;location;lat;lon;timestamp;pressure;altitude;pressure_sealevel;temperature;humidity
77240;BME280;66258;53.170;-2.240;2023-02-28T00:01:55;102265.19;;;13.97;100.00
77240;BME280;66258;53.170;-2.240;2023-02-28T00:04:22;102268.03;;;13.95;100.00
77240;BME280;66258;53.170;-2.240;2023-02-28T00:06:49;102266.19;;;13.96;100.00
77240;BME280;66258;53.170;-2.240;2023-02-28T00:09:20;102265.47;;;14.03;99.90
77240;BME280;66258;53.170;-2.240;2023-02-28T00:11:48;102262.75;;;14.03;99.93
77240;BME280;66258;53.170;-2.240;2023-02-28T00:14:16;102263.75;;;14.02;100.00
77240;BME280;66258;53.170;-2.240;2023-02-28T00:16:43;102265.63;;;13.92;100.00
77240;BME280;66258;53.170;-2.240;2023-02-28T00:19:11;102263.31;;;13.88;100.00
77240;BME280;66258;53.170;-2.240;2023-02-28T00:21:38;102258.28;;;13.93;100.00
77240;BME280;66258;53.170;-2.240;2023-02-28T00:24:07;102257.16;;;13.95;100.00
77240;BME280;66258;53.170;-2.240;2023-02-28T00:26:36;102255.28;;;13.96;100.00
77240;BME280;66258;53.170;-2.240;2023-02-28T00:29:04;102262.31;;;13.98;99.82
77240;BME280;66258;53.170;-2.240;2023-02-28T00:31:32;102268.19;;;13.94;100.00
77240;BME280;66258;53.170;-2.240;2023-02-28T00:33:59;102274.06;;;13.99;100.00
77240;BME280;66258;53.170;-2.240;2023-02-28T00:36:27;102276.22;;;13.86;100.00
77240;BME280;66258;53.170;-2.240;2023-02-28T00:38:55;102278.19;;;13.74;100.00
77240;BME280;66258;53.170;-2.240;2023-02-28T00:41:23;102266.00;;;13.68;100.00
77240;BME280;66258;53.170;-2.240;2023-02-28T00:43:52;102272.59;;;13.75;100.00
77240;BME280;66258;53.170;-2.240;2023-02-28T00:46:20;102267.03;;;13.87;100.00
77240;BME280;66258;53.170;-2.240;2023-02-28T00:48:47;102265.91;;;13.89;100.00
77240;BME280;66258;53.170;-2.240;2023-02-28T00:51:15;102266.47;;;13.83;100.00
77240;BME280;66258;53.170;-2.240;2023-02-28T00:53:44;102262.88;;;13.83;100.00
77240;BME280;66258;53.170;-2.240;2023-02-28T00:56:11;102274.50;;;13.85;100.00
77240;BME280;66258;53.170;-2.240;2023-02-28T00:58:38;102269.31;;;13.82;100.00
77240;BME280;66258;53.170;-2.240;2023-02-28T01:01:07;102267.19;;;13.85;100.00
77240;BME280;66258;53.170;-2.240;2023-02-28T01:03:35;102269.72;;;13.77;100.00
77240;BME280;66258;53.170;-2.240;2023-02-28T01:06:04;102272.47;;;13.77;100.00
77240;BME280;66258;53.170;-2.240;2023-02-28T01:08:32;102270.59;;;13.77;100.00
77240;BME280;66258;53.170;-2.240;2023-02-28T01:11:07;102280.63;;;13.77;100.00
77240;BME280;66258;53.170;-2.240;2023-02-28T01:13:35;102279.47;;;13.70;100.00
77240;BME280;66258;53.170;-2.240;2023-02-28T01:16:02;102279.75;;;13.67;100.00
77240;BME280;66258;53.170;-2.240;2023-02-28T01:18:31;102278.63;;;13.69;100.00
77240;BME280;66258;53.170;-2.240;2023-02-28T01:21:03;102282.75;;;13.64;100.00
77240;BME280;66258;53.170;-2.240;2023-02-28T01:23:31;102287.19;;;13.65;100.00
77240;BME280;66258;53.170;-2.240;2023-02-28T01:26:04;102279.84;;;13.56;100.00
77240;BME280;66258;53.170;-2.240;2023-02-28T01:28:31;102288.75;;;13.58;100.00
77240;BME280;66258;53.170;-2.240;2023-02-28T01:30:58;102290.59;;;13.57;100.00
77240;BME280;66258;53.170;-2.240;2023-02-28T01:33:26;102281.84;;;13.54;100.00
77240;BME280;66258;53.170;-2.240;2023-02-28T01:35:59;102294.06;;;13.59;100.00
77240;BME280;66258;53.170;-2.240;2023-02-28T01:38:27;102290.88;;;13.54;100.00
77240;BME280;66258;53.170;-2.240;2023-02-28T01:40:56;102291.16;;;13.51;100.00
77240;BME280;66258;53.170;-2.240;2023-02-28T01:43:25;102291.88;;;13.53;100.00
77240;BME280;66258;53.170;-2.240;2023-02-28T01:45:55;102280.97;;;13.53;100.00
77240;BME280;66258;53.170;-2.240;2023-02-28T01:48:26;102292.31;;;13.58;100.00
77240;BME280;66258;53.170;-2.240;2023-02-28T01:50:59;102291.59;;;13.56;100.00
77240;BME280;66258;53.170;-2.240;2023-02-28T01:53:33;102293.47;;;13.56;100.00
77240;BME280;66258;53.170;-2.240;2023-02-28T01:56:04;102285.16;;;13.57;100.00
77240;BME280;66258;53.170;-2.240;2023-02-28T01:58:33;102291.00;;;13.53;100.00
77240;BME280;66258;53.170;-2.240;2023-02-28T02:01:01;102277.66;;;13.40;100.00
77240;BME280;66258;53.170;-2.240;2023-02-28T02:03:29;102286.56;;;13.42;100.00
77240;BME280;66258;53.170;-2.240;2023-02-28T02:05:59;102289.72;;;13.47;100.00
77240;BME280;66258;53.170;-2.240;2023-02-28T02:08:29;102289.00;;;13.45;100.00
77240;BME280;66258;53.170;-2.240;2023-02-28T02:10:59;102285.16;;;13.48;100.00
77240;BME280;66258;53.170;-2.240;2023-02-28T02:13:44;102291.59;;;13.47;100.00
77240;BME280;66258;53.170;-2.240;2023-02-28T02:16:31;102291.44;;;13.48;100.00
77240;BME280;66258;53.170;-2.240;2023-02-28T02:19:14;102283.69;;;13.44;100.00
77240;BME280;66258;53.170;-2.240;2023-02-28T02:22:15;102282.84;;;13.53;100.00
77240;BME280;66258;53.170;-2.240;2023-02-28T02:25:21;102278.91;;;13.66;99.90
77240;BME280;66258;53.170;-2.240;2023-02-28T02:34:44;102286.25;;;13.85;97.98
77240;BME280;66258;53.170;-2.240;2023-02-28T02:37:25;102279.34;;;13.81;98.04
77240;BME280;66258;53.170;-2.240;2023-02-28T02:40:02;102289.69;;;13.87;98.09
77240;BME280;66258;53.170;-2.240;2023-02-28T02:42:37;102289.28;;;13.92;97.76
77240;BME280;66258;53.170;-2.240;2023-02-28T02:45:10;102290.53;;;13.88;98.21
77240;BME280;66258;53.170;-2.240;2023-02-28T02:47:41;102285.97;;;13.88;97.81
77240;BME280;66258;53.170;-2.240;2023-02-28T02:50:17;102286.97;;;13.87;98.18
77240;BME280;66258;53.170;-2.240;2023-02-28T02:52:48;102286.69;;;13.90;98.27
77240;BME280;66258;53.170;-2.240;2023-02-28T02:55:20;102287.97;;;13.86;97.94
77240;BME280;66258;53.170;-2.240;2023-02-28T02:57:53;102282.25;;;13.89;98.13
77240;BME280;66258;53.170;-2.240;2023-02-28T03:00:26;102285.09;;;13.88;97.90
77240;BME280;66258;53.170;-2.240;2023-02-28T03:02:57;102281.34;;;13.79;99.04
77240;BME280;66258;53.170;-2.240;2023-02-28T03:05:31;102285.66;;;13.82;99.15
77240;BME280;66258;53.170;-2.240;2023-02-28T03:08:04;102283.66;;;13.93;98.10
77240;BME280;66258;53.170;-2.240;2023-02-28T03:10:37;102283.81;;;13.92;97.96
77240;BME280;66258;53.170;-2.240;2023-02-28T03:13:19;102278.66;;;13.98;97.52
77240;BME280;66258;53.170;-2.240;2023-02-28T03:16:08;102283.53;;;14.04;96.71
77240;BME280;66258;53.170;-2.240;2023-02-28T03:18:46;102281.97;;;14.02;96.79
77240;BME280;66258;53.170;-2.240;2023-02-28T03:21:25;102279.81;;;14.05;96.67
77240;BME280;66258;53.170;-2.240;2023-02-28T03:24:03;102283.84;;;14.11;96.23
77240;BME280;66258;53.170;-2.240;2023-02-28T03:26:34;102286.41;;;14.22;96.12
77240;BME280;66258;53.170;-2.240;2023-02-28T03:29:07;102286.41;;;14.22;95.88
77240;BME280;66258;53.170;-2.240;2023-02-28T03:31:41;102287.84;;;14.26;95.53
77240;BME280;66258;53.170;-2.240;2023-02-28T03:34:13;102286.44;;;14.13;96.36
77240;BME280;66258;53.170;-2.240;2023-02-28T03:36:47;102277.41;;;14.12;96.69
77240;BME280;66258;53.170;-2.240;2023-02-28T03:39:20;102288.44;;;14.10;96.69
77240;BME280;66258;53.170;-2.240;2023-02-28T03:41:53;102288.69;;;14.17;96.27
77240;BME280;66258;53.170;-2.240;2023-02-28T03:44:28;102282.25;;;14.18;96.32
77240;BME280;66258;53.170;-2.240;2023-02-28T03:47:00;102285.84;;;14.19;96.34
77240;BME280;66258;53.170;-2.240;2023-02-28T03:49:34;102285.56;;;14.22;95.89
77240;BME280;66258;53.170;-2.240;2023-02-28T03:52:07;102286.72;;;14.09;96.81
77240;BME280;66258;53.170;-2.240;2023-02-28T03:54:43;102289.69;;;14.16;96.34
77240;BME280;66258;53.170;-2.240;2023-02-28T03:57:17;102285.25;;;14.05;96.30
77240;BME280;66258;53.170;-2.240;2023-02-28T03:59:52;102280.97;;;14.03;96.34
77240;BME280;66258;53.170;-2.240;2023-02-28T04:02:21;102286.56;;;14.11;96.26
77240;BME280;66258;53.170;-2.240;2023-02-28T04:04:49;102287.84;;;14.07;96.22
77240;BME280;66258;53.170;-2.240;2023-02-28T04:07:19;102284.50;;;13.94;96.75
77240;BME280;66258;53.170;-2.240;2023-02-28T04:09:46;102280.94;;;13.84;97.40
77240;BME280;66258;53.170;-2.240;2023-02-28T04:12:14;102283.47;;;13.75;97.47
77240;BME280;66258;53.170;-2.240;2023-02-28T04:14:42;102272.69;;;13.55;97.76
77240;BME280;66258;53.170;-2.240;2023-02-28T04:17:12;102276.03;;;13.68;97.62
77240;BME280;66258;53.170;-2.240;2023-02-28T04:19:39;102274.22;;;13.38;98.37
77240;BME280;66258;53.170;-2.240;2023-02-28T04:22:08;102274.53;;;13.45;98.56
77240;BME280;66258;53.170;-2.240;2023-02-28T04:24:37;102275.66;;;13.42;98.13
77240;BME280;66258;53.170;-2.240;2023-02-28T04:27:05;102279.84;;;13.46;98.22
77240;BME280;66258;53.170;-2.240;2023-02-28T04:29:33;102283.16;;;13.59;97.97
77240;BME280;66258;53.170;-2.240;2023-02-28T04:32:03;102283.88;;;13.61;97.81
77240;BME280;66258;53.170;-2.240;2023-02-28T04:34:31;102280.00;;;13.54;98.20
77240;BME280;66258;53.170;-2.240;2023-02-28T04:36:59;102274.00;;;13.60;98.17
77240;BME280;66258;53.170;-2.240;2023-02-28T04:39:41;102282.44;;;13.48;98.31
77240;BME280;66258;53.170;-2.240;2023-02-28T04:42:09;102281.75;;;13.25;98.84
77240;BME280;66258;53.170;-2.240;2023-02-28T04:44:37;102279.25;;;13.43;99.01
77240;BME280;66258;53.170;-2.240;2023-02-28T04:47:05;102288.88;;;13.56;98.05
77240;BME280;66258;53.170;-2.240;2023-02-28T04:49:32;102288.88;;;13.47;98.67
77240;BME280;66258;53.170;-2.240;2023-02-28T04:51:59;102287.88;;;13.57;98.75
77240;BME280;66258;53.170;-2.240;2023-02-28T04:54:27;102291.16;;;13.51;98.70
77240;BME280;66258;53.170;-2.240;2023-02-28T04:56:56;102294.00;;;13.40;99.21
77240;BME280;66258;53.170;-2.240;2023-02-28T04:59:24;102294.81;;;13.10;100.00
77240;BME280;66258;53.170;-2.240;2023-02-28T05:01:52;102292.44;;;12.96;100.00
77240;BME280;66258;53.170;-2.240;2023-02-28T05:04:21;102286.00;;;13.18;100.00
77240;BME280;66258;53.170;-2.240;2023-02-28T05:06:49;102284.78;;;13.11;100.00
77240;BME280;66258;53.170;-2.240;2023-02-28T05:09:16;102294.03;;;13.19;100.00
77240;BME280;66258;53.170;-2.240;2023-02-28T05:11:44;102291.66;;;13.26;100.00
77240;BME280;66258;53.170;-2.240;2023-02-28T05:14:14;102298.69;;;13.28;100.00
77240;BME280;66258;53.170;-2.240;2023-02-28T05:16:45;102294.22;;;13.27;100.00
77240;BME280;66258;53.170;-2.240;2023-02-28T05:19:13;102292.06;;;13.31;100.00
77240;BME280;66258;53.170;-2.240;2023-02-28T05:21:49;102290.38;;;13.30;100.00
77240;BME280;66258;53.170;-2.240;2023-02-28T05:24:19;102297.50;;;13.31;100.00
77240;BME280;66258;53.170;-2.240;2023-02-28T05:26:47;102295.38;;;13.34;100.00
77240;BME280;66258;53.170;-2.240;2023-02-28T05:29:17;102289.94;;;13.34;100.00
77240;BME280;66258;53.170;-2.240;2023-02-28T05:31:45;102297.69;;;13.39;100.00
77240;BME280;66258;53.170;-2.240;2023-02-28T05:34:13;102293.56;;;13.45;100.00
77240;BME280;66258;53.170;-2.240;2023-02-28T05:36:41;102294.84;;;13.40;100.00
77240;BME280;66258;53.170;-2.240;2023-02-28T05:39:09;102296.91;;;13.48;100.00
77240;BME280;66258;53.170;-2.240;2023-02-28T05:41:36;102298.25;;;13.33;100.00
77240;BME280;66258;53.170;-2.240;2023-02-28T05:44:04;102297.09;;;13.26;100.00
77240;BME280;66258;53.170;-2.240;2023-02-28T05:46:34;102298.81;;;13.27;100.00
77240;BME280;66258;53.170;-2.240;2023-02-28T05:49:03;102298.94;;;13.25;100.00
77240;BME280;66258;53.170;-2.240;2023-02-28T05:51:30;102298.53;;;13.30;100.00
77240;BME280;66258;53.170;-2.240;2023-02-28T05:53:59;102295.25;;;13.36;100.00
77240;BME280;66258;53.170;-2.240;2023-02-28T05:56:27;102298.69;;;13.28;100.00
77240;BME280;66258;53.170;-2.240;2023-02-28T05:58:55;102301.09;;;13.31;100.00
77240;BME280;66258;53.170;-2.240;2023-02-28T06:01:31;102297.38;;;13.32;100.00
77240;BME280;66258;53.170;-2.240;2023-02-28T06:04:02;102302.56;;;13.35;100.00
77240;BME280;66258;53.170;-2.240;2023-02-28T06:06:30;102300.66;;;13.26;100.00
77240;BME280;66258;53.170;-2.240;2023-02-28T06:08:58;102311.69;;;13.65;100.00
77240;BME280;66258;53.170;-2.240;2023-02-28T06:11:27;102320.53;;;13.48;100.00
77240;BME280;66258;53.170;-2.240;2023-02-28T06:13:56;102306.41;;;13.33;100.00
77240;BME280;66258;53.170;-2.240;2023-02-28T06:16:25;102310.38;;;13.50;100.00
77240;BME280;66258;53.170;-2.240;2023-02-28T06:18:54;102305.41;;;13.34;100.00
77240;BME280;66258;53.170;-2.240;2023-02-28T06:21:23;102305.97;;;13.28;100.00
77240;BME280;66258;53.170;-2.240;2023-02-28T06:23:51;102308.97;;;13.25;100.00
77240;BME280;66258;53.170;-2.240;2023-02-28T06:26:19;102307.69;;;13.29;100.00
77240;BME280;66258;53.170;-2.240;2023-02-28T06:28:46;102313.41;;;13.26;100.00
77240;BME280;66258;53.170;-2.240;2023-02-28T06:31:16;102318.38;;;13.21;100.00
77240;BME280;66258;53.170;-2.240;2023-02-28T06:33:45;102308.84;;;13.26;100.00
77240;BME280;66258;53.170;-2.240;2023-02-28T06:36:13;102308.84;;;13.26;100.00
77240;BME280;66258;53.170;-2.240;2023-02-28T06:38:45;102307.41;;;13.32;100.00
77240;BME280;66258;53.170;-2.240;2023-02-28T06:41:13;102318.84;;;13.26;100.00
77240;BME280;66258;53.170;-2.240;2023-02-28T06:43:41;102318.28;;;13.11;100.00
77240;BME280;66258;53.170;-2.240;2023-02-28T06:46:12;102320.16;;;13.11;100.00
77240;BME280;66258;53.170;-2.240;2023-02-28T06:48:40;102324.47;;;13.13;100.00
77240;BME280;66258;53.170;-2.240;2023-02-28T06:51:10;102326.44;;;13.11;100.00
77240;BME280;66258;53.170;-2.240;2023-02-28T06:53:39;102331.59;;;13.04;100.00
77240;BME280;66258;53.170;-2.240;2023-02-28T06:56:10;102337.19;;;13.13;100.00
77240;BME280;66258;53.170;-2.240;2023-02-28T06:58:38;102334.25;;;13.16;100.00
77240;BME280;66258;53.170;-2.240;2023-02-28T07:01:06;102336.34;;;13.12;100.00
77240;BME280;66258;53.170;-2.240;2023-02-28T07:03:35;102331.75;;;13.13;100.00
77240;BME280;66258;53.170;-2.240;2023-02-28T07:06:04;102344.78;;;13.09;100.00
77240;BME280;66258;53.170;-2.240;2023-02-28T07:08:32;102342.63;;;13.13;100.00
77240;BME280;66258;53.170;-2.240;2023-02-28T07:11:00;102346.22;;;13.13;100.00
77240;BME280;66258;53.170;-2.240;2023-02-28T07:13:30;102338.56;;;13.18;100.00
77240;BME280;66258;53.170;-2.240;2023-02-28T07:15:59;102344.50;;;13.12;100.00
77240;BME280;66258;53.170;-2.240;2023-02-28T07:18:28;102341.34;;;13.07;100.00
77240;BME280;66258;53.170;-2.240;2023-02-28T07:20:57;102333.75;;;13.11;100.00
77240;BME280;66258;53.170;-2.240;2023-02-28T07:23:24;102348.91;;;13.24;100.00
77240;BME280;66258;53.170;-2.240;2023-02-28T07:25:52;102341.34;;;13.28;100.00
77240;BME280;66258;53.170;-2.240;2023-02-28T07:28:19;102342.91;;;13.30;100.00
77240;BME280;66258;53.170;-2.240;2023-02-28T07:30:48;102345.06;;;13.27;100.00
77240;BME280;66258;53.170;-2.240;2023-02-28T07:33:16;102346.34;;;13.32;100.00
77240;BME280;66258;53.170;-2.240;2023-02-28T07:35:43;102355.09;;;13.36;100.00
77240;BME280;66258;53.170;-2.240;2023-02-28T07:38:15;102354.66;;;13.31;100.00
77240;BME280;66258;53.170;-2.240;2023-02-28T07:40:43;102359.03;;;13.43;100.00
77240;BME280;66258;53.170;-2.240;2023-02-28T07:43:10;102355.16;;;13.46;100.00
77240;BME280;66258;53.170;-2.240;2023-02-28T07:45:38;102366.59;;;13.39;100.00
77240;BME280;66258;53.170;-2.240;2023-02-28T07:48:08;102369.78;;;13.45;100.00
77240;BME280;66258;53.170;-2.240;2023-02-28T07:50:35;102369.06;;;13.52;100.00
77240;BME280;66258;53.170;-2.240;2023-02-28T07:53:02;102363.50;;;13.54;100.00
77240;BME280;66258;53.170;-2.240;2023-02-28T07:55:30;102372.97;;;13.59;100.00
77240;BME280;66258;53.170;-2.240;2023-02-28T07:57:59;102368.25;;;13.61;100.00
77240;BME280;66258;53.170;-2.240;2023-02-28T08:00:27;102362.63;;;13.53;100.00
77240;BME280;66258;53.170;-2.240;2023-02-28T08:02:54;102371.50;;;13.46;100.00
77240;BME280;66258;53.170;-2.240;2023-02-28T08:05:23;102363.34;;;13.46;100.00
77240;BME280;66258;53.170;-2.240;2023-02-28T08:07:51;102362.00;;;13.40;100.00
77240;BME280;66258;53.170;-2.240;2023-02-28T08:10:19;102367.19;;;13.43;100.00
77240;BME280;66258;53.170;-2.240;2023-02-28T08:12:47;102364.47;;;13.43;100.00
77240;BME280;66258;53.170;-2.240;2023-02-28T08:15:15;102369.72;;;13.35;100.00
77240;BME280;66258;53.170;-2.240;2023-02-28T08:17:44;102370.16;;;13.40;100.00
77240;BME280;66258;53.170;-2.240;2023-02-28T08:20:12;102370.22;;;13.50;100.00
77240;BME280;66258;53.170;-2.240;2023-02-28T08:22:41;102362.38;;;13.56;100.00
77240;BME280;66258;53.170;-2.240;2023-02-28T08:25:11;102369.13;;;13.62;100.00
77240;BME280;66258;53.170;-2.240;2023-02-28T08:27:39;102368.44;;;13.39;100.00
77240;BME280;66258;53.170;-2.240;2023-02-28T08:30:07;102370.50;;;13.47;100.00
77240;BME280;66258;53.170;-2.240;2023-02-28T08:32:37;102368.81;;;13.25;100.00
77240;BME280;66258;53.170;-2.240;2023-02-28T08:35:06;102370.44;;;13.37;100.00
77240;BME280;66258;53.170;-2.240;2023-02-28T08:37:34;102373.88;;;13.39;100.00
77240;BME280;66258;53.170;-2.240;2023-02-28T08:40:06;102365.81;;;13.28;100.00
77240;BME280;66258;53.170;-2.240;2023-02-28T08:42:34;102373.41;;;13.13;100.00
77240;BME280;66258;53.170;-2.240;2023-02-28T08:45:01;102378.44;;;13.29;100.00
77240;BME280;66258;53.170;-2.240;2023-02-28T08:47:29;102371.50;;;13.46;100.00
77240;BME280;66258;53.170;-2.240;2023-02-28T08:49:57;102378.03;;;13.73;100.00
77240;BME280;66258;53.170;-2.240;2023-02-28T08:52:25;102382.72;;;13.92;100.00
77240;BME280;66258;53.170;-2.240;2023-02-28T08:54:52;102385.44;;;14.02;100.00
77240;BME280;66258;53.170;-2.240;2023-02-28T08:57:21;102383.50;;;14.23;100.00
77240;BME280;66258;53.170;-2.240;2023-02-28T08:59:49;102377.91;;;14.34;100.00
77240;BME280;66258;53.170;-2.240;2023-02-28T09:02:17;102380.00;;;14.02;100.00
77240;BME280;66258;53.170;-2.240;2023-02-28T09:04:45;102376.72;;;14.18;100.00
77240;BME280;66258;53.170;-2.240;2023-02-28T09:07:13;102380.91;;;14.12;100.00
77240;BME280;66258;53.170;-2.240;2023-02-28T09:09:41;102389.22;;;14.20;100.00
77240;BME280;66258;53.170;-2.240;2023-02-28T09:12:08;102375.88;;;14.17;100.00
77240;BME280;66258;53.170;-2.240;2023-02-28T09:14:38;102388.78;;;14.15;100.00
77240;BME280;66258;53.170;-2.240;2023-02-28T09:17:06;102382.78;;;14.21;100.00
77240;BME280;66258;53.170;-2.240;2023-02-28T09:19:33;102387.53;;;14.29;100.00
77240;BME280;66258;53.170;-2.240;2023-02-28T09:22:02;102387.44;;;14.50;100.00
77240;BME280;66258;53.170;-2.240;2023-02-28T09:24:29;102388.56;;;14.86;100.00
77240;BME280;66258;53.170;-2.240;2023-02-28T09:26:58;102385.56;;;14.50;100.00
77240;BME280;66258;53.170;-2.240;2023-02-28T09:29:31;102391.72;;;14.42;100.00
77240;BME280;66258;53.170;-2.240;2023-02-28T09:32:02;102392.34;;;14.75;100.00
77240;BME280;66258;53.170;-2.240;2023-02-28T09:34:29;102401.63;;;14.63;100.00
77240;BME280;66258;53.170;-2.240;2023-02-28T09:36:57;102398.91;;;14.63;99.31
77240;BME280;66258;53.170;-2.240;2023-02-28T09:39:26;102387.31;;;14.70;98.76
77240;BME280;66258;53.170;-2.240;2023-02-28T09:41:55;102393.59;;;14.90;98.10
77240;BME280;66258;53.170;-2.240;2023-02-28T09:44:30;102401.34;;;14.85;97.32
77240;BME280;66258;53.170;-2.240;2023-02-28T09:47:05;102400.06;;;14.70;96.83
77240;BME280;66258;53.170;-2.240;2023-02-28T09:49:40;102391.44;;;14.65;96.62
77240;BME280;66258;53.170;-2.240;2023-02-28T09:52:12;102394.03;;;14.95;96.70
77240;BME280;66258;53.170;-2.240;2023-02-28T09:54:41;102401.47;;;15.12;95.93
77240;BME280;66258;53.170;-2.240;2023-02-28T09:57:15;102406.91;;;15.22;95.34
77240;BME280;66258;53.170;-2.240;2023-02-28T09:59:54;102401.72;;;15.19;94.85
77240;BME280;66258;53.170;-2.240;2023-02-28T10:05:42;102413.13;;;16.26;93.95
77240;BME280;66258;53.170;-2.240;2023-02-28T10:08:18;102426.25;;;15.95;89.63
77240;BME280;66258;53.170;-2.240;2023-02-28T10:10:50;102424.06;;;15.98;88.28
77240;BME280;66258;53.170;-2.240;2023-02-28T10:13:26;102421.38;;;15.89;87.82
77240;BME280;66258;53.170;-2.240;2023-02-28T10:15:59;102422.34;;;15.60;87.84
77240;BME280;66258;53.170;-2.240;2023-02-28T10:18:33;102413.09;;;15.15;89.26
77240;BME280;66258;53.170;-2.240;2023-02-28T10:21:16;102416.03;;;15.40;90.46
77240;BME280;66258;53.170;-2.240;2023-02-28T10:23:46;102415.50;;;15.27;90.11
77240;BME280;66258;53.170;-2.240;2023-02-28T10:26:17;102421.19;;;15.53;90.68
77240;BME280;66258;53.170;-2.240;2023-02-28T10:28:45;102423.22;;;15.98;89.19
77240;BME280;66258;53.170;-2.240;2023-02-28T10:31:18;102427.66;;;16.26;87.54
77240;BME280;66258;53.170;-2.240;2023-02-28T10:33:48;102419.13;;;16.29;85.76
77240;BME280;66258;53.170;-2.240;2023-02-28T10:36:19;102422.94;;;15.91;85.58
77240;BME280;66258;53.170;-2.240;2023-02-28T10:38:47;102422.09;;;16.18;85.77
77240;BME280;66258;53.170;-2.240;2023-02-28T10:41:26;102431.97;;;16.46;85.40
77240;BME280;66258;53.170;-2.240;2023-02-28T10:44:15;102419.25;;;16.55;85.71
77240;BME280;66258;53.170;-2.240;2023-02-28T10:46:45;102413.22;;;15.32;86.68
77240;BME280;66258;53.170;-2.240;2023-02-28T10:49:21;102414.78;;;15.81;88.15
77240;BME280;66258;53.170;-2.240;2023-02-28T10:51:55;102416.06;;;16.14;88.87
77240;BME280;66258;53.170;-2.240;2023-02-28T10:54:26;102419.34;;;15.91;86.54
77240;BME280;66258;53.170;-2.240;2023-02-28T10:57:12;102410.19;;;15.82;86.13
77240;BME280;66258;53.170;-2.240;2023-02-28T10:59:42;102405.91;;;16.52;85.70
77240;BME280;66258;53.170;-2.240;2023-02-28T11:02:31;102409.59;;;16.61;83.76
77240;BME280;66258;53.170;-2.240;2023-02-28T11:05:00;102406.84;;;16.96;81.49
77240;BME280;66258;53.170;-2.240;2023-02-28T11:07:29;102405.59;;;17.60;77.07
77240;BME280;66258;53.170;-2.240;2023-02-28T11:10:20;102412.03;;;17.51;74.92
77240;BME280;66258;53.170;-2.240;2023-02-28T11:12:54;102420.78;;;18.14;71.39
77240;BME280;66258;53.170;-2.240;2023-02-28T11:15:25;102414.41;;;17.72;68.03
77240;BME280;66258;53.170;-2.240;2023-02-28T11:17:54;102418.16;;;17.71;67.10
77240;BME280;66258;53.170;-2.240;2023-02-28T11:20:26;102409.31;;;17.07;67.60
77240;BME280;66258;53.170;-2.240;2023-02-28T11:22:57;102416.25;;;16.76;68.65
77240;BME280;66258;53.170;-2.240;2023-02-28T11:25:28;102406.03;;;16.33;70.19
77240;BME280;66258;53.170;-2.240;2023-02-28T11:27:57;102409.81;;;16.22;71.77
77240;BME280;66258;53.170;-2.240;2023-02-28T11:30:32;102403.34;;;16.23;73.06
77240;BME280;66258;53.170;-2.240;2023-02-28T11:33:13;102390.03;;;15.93;74.30
77240;BME280;66258;53.170;-2.240;2023-02-28T11:35:48;102398.50;;;16.17;73.22
77240;BME280;66258;53.170;-2.240;2023-02-28T11:38:19;102387.09;;;15.76;73.38
77240;BME280;66258;53.170;-2.240;2023-02-28T11:40:55;102383.31;;;16.05;74.11
77240;BME280;66258;53.170;-2.240;2023-02-28T11:43:52;102385.06;;;16.69;72.22
77240;BME280;66258;53.170;-2.240;2023-02-28T11:46:33;102380.63;;;17.11;71.75
77240;BME280;66258;53.170;-2.240;2023-02-28T11:49:14;102381.38;;;16.96;68.90
77240;BME280;66258;53.170;-2.240;2023-02-28T11:51:53;102374.91;;;17.23;67.80
77240;BME280;66258;53.170;-2.240;2023-02-28T11:54:39;102379.88;;;16.83;67.12
77240;BME280;66258;53.170;-2.240;2023-02-28T11:57:28;102366.94;;;16.68;66.86
77240;BME280;66258;53.170;-2.240;2023-02-28T12:00:06;102377.78;;;16.60;65.08
77240;BME280;66258;53.170;-2.240;2023-02-28T12:02:54;102375.19;;;16.58;63.77
77240;BME280;66258;53.170;-2.240;2023-02-28T12:05:30;102362.16;;;16.70;63.77
77240;BME280;66258;53.170;-2.240;2023-02-28T12:08:10;102361.81;;;16.91;64.42
77240;BME280;66258;53.170;-2.240;2023-02-28T12:10:53;102356.69;;;16.34;63.91
77240;BME280;66258;53.170;-2.240;2023-02-28T12:13:25;102356.31;;;16.02;64.68
77240;BME280;66258;53.170;-2.240;2023-02-28T12:16:19;102348.00;;;16.39;64.98
77240;BME280;66258;53.170;-2.240;2023-02-28T12:18:58;102353.84;;;16.26;65.90
77240;BME280;66258;53.170;-2.240;2023-02-28T12:21:34;102350.03;;;16.19;66.03
77240;BME280;66258;53.170;-2.240;2023-02-28T12:24:31;102345.50;;;16.63;65.57
77240;BME280;66258;53.170;-2.240;2023-02-28T12:27:09;102350.03;;;16.55;64.57
77240;BME280;66258;53.170;-2.240;2023-02-28T12:29:45;102344.03;;;16.69;65.11
77240;BME280;66258;53.170;-2.240;2023-02-28T12:32:18;102343.47;;;16.65;64.61
77240;BME280;66258;53.170;-2.240;2023-02-28T12:34:53;102342.88;;;16.71;64.32
77240;BME280;66258;53.170;-2.240;2023-02-28T12:37:29;102332.78;;;16.72;63.71
77240;BME280;66258;53.170;-2.240;2023-02-28T12:40:06;102333.41;;;16.66;63.68
77240;BME280;66258;53.170;-2.240;2023-02-28T12:42:43;102326.25;;;16.91;63.18
77240;BME280;66258;53.170;-2.240;2023-02-28T12:45:18;102326.88;;;16.84;62.86
77240;BME280;66258;53.170;-2.240;2023-02-28T12:47:52;102315.69;;;16.96;62.29
77240;BME280;66258;53.170;-2.240;2023-02-28T12:50:23;102317.03;;;16.92;61.47
77240;BME280;66258;53.170;-2.240;2023-02-28T12:52:59;102311.88;;;16.89;60.23
77240;BME280;66258;53.170;-2.240;2023-02-28T12:55:34;102310.16;;;16.88;60.00
77240;BME280;66258;53.170;-2.240;2023-02-28T12:58:13;102306.09;;;17.17;60.19
77240;BME280;66258;53.170;-2.240;2023-02-28T13:00:51;102301.53;;;17.00;59.69
77240;BME280;66258;53.170;-2.240;2023-02-28T13:06:50;102295.13;;;16.66;60.59
77240;BME280;66258;53.170;-2.240;2023-02-28T13:09:24;102290.91;;;16.54;61.42
77240;BME280;66258;53.170;-2.240;2023-02-28T13:11:54;102293.25;;;16.48;61.35